Record high temperature 35.2°C Record low temperature -28.5°C Record high gust 73.6 km/h Record high average 183.7 km/h Record daily rain 78.0 mm Record low windchill -39.6°C Record high barometer 1045.2 hPa Record low barometer 973.0 hPa
Daily high pressure 1029 hPa Daily low pressure 1029 hPa Daily low windchill -21.8°C Daily high heat index -15.9°C Daily high gust speed 8.6 kmh WSW Daily high average speed 7.9 kmh WSW
Beaconsfield Home Weather Data WMR-968
LAST READING AT TIME: 00:50 DATE: March 06 2015, time of next update: 00:55
Current WeatherNight time/Dry/clear Current Temperature -17.2°C (1.0°F), Apparent temp -20.5°C
Maximum Temperature (since midnight)-15.9°C at: 00:00 Minimum Temperature (since midnight)-17.2°C at: 00:47
Average windspeed (ten minute)0.0 kmh (0.0 kts) Wind Direction (ten minute)SW (225°)
Windchill Temperature -17.2°C Maximum Gust (last hour)11.5 kmh (6.2 kts) at: 23:59
Maximum Gust (since midnight)8.6 kmh (4.7 kts) at: 00:00 Maximum 1 minute average (since midnight)7.9 kmh (4.3 kts) at: 00:00
Rainfall (last hour)0.0 mm Rainfall (since midnight)0.0 mm (0.00 in.)---
Rainfall This month 0.6 mm (0.02 in.) Rainfall To date this year 6.4 mm (0.25 in.)
Maximum rain per minute (last hour)0.0 mm/min Maximum rain per hour (last 6 hours)0.0 mm/hour
Yesterdays rainfall 0.0 mm DewPoint -30.0°C (Wet Bulb :-18.5°C )
Humidity 32 %, Humidex -22.5°C Barometer corrected to msl1029 hPa
Pressure change 0 hPa (last hour) Trend (last hour)STEADY
Pressure change (last 12 hours)+4 hPa Pressure change (last 6 hours)+4 hPa
Current Indoor Temp. 20.0°C
Current Indoor Hum. 23%
Current 00:00 hours of sunshine today, current sky: Night time/Dry/clear
Sunshine hours for the year: 00:00 hrs Sunshine hours for the month: 00:00 hrs
Current evapotranspiration rate 0.0 mm per day. Yesterday's reading 1.7




Weather report/warning/Metars

Montreal / Pierre Elliot Trudeau International Airport, Que, Canada (CYUL) 45-28N 073-45W 36M
Mar 06, 2015 - 12:00 AM EST / 2015.03.06 0500 UTC
Wind: from the SW (230 degrees) at 5 MPH (4 KT):0
Visibility: 15 mile(s):0
Sky conditions: clear
Temperature: 1 F (-17 C)
Windchill: -9 F (-23 C):2
Dew Point: -11 F (-24 C)
Relative Humidity: 54%
Pressure (altimeter): 30.39 in. Hg (1029 hPa)
ob: CYUL 060500Z 23004KT 15SM SKC M17/M24 A3039 RMK SLP295
cycle: 5
Sherbrooke, Que., Canada (CYSC) 45-24N 071-53W
Mar 06, 2015 - 12:00 AM EST / 2015.03.06 0500 UTC
Wind: from the E (090 degrees) at 3 MPH (3 KT):0
Visibility: 9 mile(s):0
Sky conditions: clear
Temperature: -14 F (-26 C)
Dew Point: -18 F (-28 C)
Relative Humidity: 83%
Pressure (altimeter): 30.3 in. Hg (1026 hPa)
ob: CYSC 060500Z AUTO 09003KT 9SM CLR M26/M28 A3030 RMK SLP285
cycle: 5
St Jovite Automatic Weather Reporting System , Canada (CWJT) 46-04N 074-32W
Mar 05, 2015 - 11:00 PM EST / 2015.03.06 0400 UTC
Wind: from the E (080 degrees) at 1 MPH (1 KT):0
Temperature: -14.8 F (-26.0 C)
Dew Point: -19.7 F (-28.7 C)
Relative Humidity: 77%
Pressure tendency: 0.04 inches (1.5 hPa) higher than three hours ago
ob: CWJT 060400Z AUTO 08001KT M26/M29 RMK AO1 SLP305 T12601287 52015
cycle: 4
Ste Anne De Bell 1, Canada (CWVQ) 45-26N 073-56W
Mar 06, 2015 - 12:00 AM EST / 2015.03.06 0500 UTC
Wind: from the WSW (240 degrees) at 8 MPH (7 KT):0
Temperature: 0.5 F (-17.5 C)
Windchill: -13 F (-25 C):2
Dew Point: -10.3 F (-23.5 C)
Relative Humidity: 59%
ob: CWVQ 060500Z AUTO 24007KT M18/M24 RMK AO1 SOG 29 1016 SLP296 T11751235
cycle: 5
Montreal / Mirabel, Canada (CYMX) 45-41N 074-02W
Mar 06, 2015 - 12:00 AM EST / 2015.03.06 0500 UTC
Wind: from the SW (230 degrees) at 3 MPH (3 KT):0
Visibility: 25 mile(s):0
Sky conditions: clear
Temperature: -2 F (-19 C)
Dew Point: -14 F (-26 C)
Relative Humidity: 53%
Pressure (altimeter): 30.37 in. Hg (1028 hPa)
ob: CYMX 060500Z 23003KT 25SM SKC M19/M26 A3037 RMK SLP292
cycle: 5
L'Acadie, Canada (CWIZ) 45-18N 073-21W
Mar 06, 2015 - 12:00 AM EST / 2015.03.06 0500 UTC
Wind: from the WSW (240 degrees) at 6 MPH (5 KT):0
Temperature: 0.9 F (-17.3 C)
Windchill: -11 F (-24 C):2
Dew Point: -9.6 F (-23.1 C)
Relative Humidity: 60%
ob: CWIZ 060500Z AUTO 24005KT M17/M23 RMK AO1 T11731231
cycle: 5
St Anicet, Canada (CWBZ) 45-07N 074-17W 49M
Mar 06, 2015 - 12:00 AM EST / 2015.03.06 0500 UTC
Wind: from the SW (230 degrees) at 6 MPH (5 KT):0
Temperature: -2.2 F (-19.0 C)
Windchill: -14 F (-26 C):2
Dew Point: -10.3 F (-23.5 C)
Relative Humidity: 67%
Pressure tendency: 0.04 inches (1.3 hPa) higher than three hours ago
ob: CWBZ 060500Z AUTO 23005KT M19/M24 RMK AO1 SLP305 T11901235 51013
cycle: 5
Mount Washington, NH, United States (KMWN) 44-16N 071-18W 1910M
Mar 05, 2015 - 11:51 PM EST / 2015.03.06 0451 UTC
Wind: from the NNW (330 degrees) at 41 MPH (36 KT):0
Visibility: 110 mile(s):0
Sky conditions: mostly clear
Temperature: -14 F (-26 C)
Windchill: -49 F (-45 C):2
Dew Point: -32 F (-36 C)
Relative Humidity: 38%
ob: KMWN 060451Z 33036KT 110SM FEW160 FEW180 M26/M36 RMK 
cycle: 5
Vancouver International Air-Port, B. C., Canada (CYVR) 49-11N 123-10W 2M
Mar 06, 2015 - 12:00 AM EST / 2015.03.06 0500 UTC
Wind: from the NW (310 degrees) at 2 MPH (2 KT):0
Visibility: 30 mile(s):0
Sky conditions: partly cloudy
Temperature: 41 F (5 C)
Dew Point: 33 F (1 C)
Relative Humidity: 75%
Pressure (altimeter): 30.41 in. Hg (1029 hPa)
ob: CYVR 060500Z 31002KT 30SM FEW060 FEW095 SCT240 05/01 A3041 RMK SC1AC1CS1 SLP296
cycle: 5



The data is logged at two minute intervals, but there is data recorded every minute.

Use the RELOAD facility on your browser to retrieve the latest data.

Click here for a daily update of the averages/extremes to date for the month

Click here for Real Time Weather



Created by "Weather Display" software version 10.37R Build 51 at this start time/date 22:34 2015-01-04